Time;durP1;ratioP1;P1;durP2;ratioP2;P2;SDS_P1;SDS_P2;PMS_P1;PMS_P2;Temp;Humidity;BMP_temperature;BMP_pressure;BME280_temperature;BME280_humidity;BME280_pressure;Samples;Min_cycle;Max_cycle;Signal;HPM_P1;HPM_P2
2021/04/22 00:00:20;;;;;;;17.13;11.19;;;;;;;12.20;53.79;99101.77;356188;112;1961909;-72
2021/04/22 00:01:27;;;;;;;20.14;11.17;;;;;;;12.17;53.87;99103.08;358958;112;1962990;-73
2021/04/22 00:02:32;;;;;;;18.87;11.04;;;;;;;12.15;53.94;99104.37;358278;110;1961967;-72
2021/04/22 00:03:37;;;;;;;16.19;9.91;;;;;;;12.12;54.06;99096.67;351302;114;1961949;-72
2021/04/22 00:04:42;;;;;;;17.96;11.11;;;;;;;12.10;54.02;99108.57;360571;109;1962967;-72
2021/04/22 00:05:49;;;;;;;14.81;10.15;;;;;;;12.10;54.09;99102.34;359868;112;1961971;-72
2021/04/22 00:06:56;;;;;;;15.79;10.44;;;;;;;12.09;54.15;99103.38;319063;109;2706036;-72
2021/04/22 00:08:03;;;;;;;18.20;11.46;;;;;;;12.06;54.34;99110.07;360178;110;1960895;-73
2021/04/22 00:09:09;;;;;;;16.29;9.71;;;;;;;12.03;54.28;99102.41;358049;112;1960955;-72
2021/04/22 00:10:18;;;;;;;17.56;11.76;;;;;;;11.99;54.41;99103.94;334913;109;1962949;-72
2021/04/22 00:11:23;;;;;;;15.16;10.29;;;;;;;11.98;54.50;99101.45;359440;112;1962933;-72
2021/04/22 00:12:29;;;;;;;17.48;10.94;;;;;;;11.93;54.59;99109.43;359534;109;1962066;-72
2021/04/22 00:13:36;;;;;;;14.54;9.84;;;;;;;11.90;54.58;99102.59;316811;109;2778899;-72
2021/04/22 00:14:41;;;;;;;15.79;9.22;;;;;;;11.85;54.82;99105.98;360835;109;1960968;-72
2021/04/22 00:15:46;;;;;;;13.34;9.36;;;;;;;11.83;54.98;99107.26;360748;112;1961907;-72
2021/04/22 00:16:52;;;;;;;14.60;10.12;;;;;;;11.83;54.90;99101.84;360181;109;1962814;-72
2021/04/22 00:17:58;;;;;;;15.44;8.82;;;;;;;11.81;54.91;99102.05;360226;110;1961014;-72
2021/04/22 00:19:05;;;;;;;15.75;9.65;;;;;;;11.80;54.92;99107.69;358700;109;1961073;-72
2021/04/22 00:20:13;;;;;;;13.31;9.23;;;;;;;11.76;55.09;99114.63;342186;109;1963010;-72
2021/04/22 00:21:18;;;;;;;16.24;9.76;;;;;;;11.75;55.16;99112.95;358528;112;1961963;-72
2021/04/22 00:22:23;;;;;;;14.24;9.55;;;;;;;11.73;55.20;99110.48;358584;112;1965153;-72
2021/04/22 00:23:29;;;;;;;15.20;9.87;;;;;;;11.71;55.42;99109.06;360413;109;1961974;-72
2021/04/22 00:24:34;;;;;;;14.34;8.84;;;;;;;11.68;55.41;99102.23;358905;110;1961971;-72
2021/04/22 00:25:41;;;;;;;15.83;9.41;;;;;;;11.67;55.38;99108.70;350340;109;2938021;-72
2021/04/22 00:26:48;;;;;;;14.17;8.76;;;;;;;11.62;55.51;99111.26;358215;112;1964031;-72
2021/04/22 00:27:53;;;;;;;13.60;9.41;;;;;;;11.60;55.54;99113.35;358321;109;1963055;-72
2021/04/22 00:29:00;;;;;;;14.82;9.08;;;;;;;11.58;55.65;99112.75;361553;108;1962023;-72
2021/04/22 00:30:10;;;;;;;14.49;9.27;;;;;;;11.58;55.65;99110.86;321780;110;2719009;-72
2021/04/22 00:31:17;;;;;;;12.42;8.47;;;;;;;11.59;55.57;99112.53;333488;108;2496022;-72
2021/04/22 00:32:22;;;;;;;14.15;9.28;;;;;;;11.59;55.59;99112.53;363591;110;1961962;-72
2021/04/22 00:33:27;;;;;;;13.49;8.72;;;;;;;11.55;55.78;99118.61;363119;110;1962004;-72
2021/04/22 00:34:32;;;;;;;12.52;8.57;;;;;;;11.53;55.82;99116.13;363350;110;1961997;-72
2021/04/22 00:35:39;;;;;;;14.36;8.49;;;;;;;11.54;55.79;99116.97;362898;110;1963923;-72
2021/04/22 00:36:46;;;;;;;15.26;9.90;;;;;;;11.54;55.81;99117.80;317479;110;2809963;-72
2021/04/22 00:37:51;;;;;;;14.62;8.83;;;;;;;11.52;55.78;99109.07;332940;110;1961937;-72
2021/04/22 00:38:56;;;;;;;14.03;9.09;;;;;;;11.50;55.90;99115.75;337465;111;1960717;-73
2021/04/22 00:40:08;;;;;;;14.80;9.86;;;;;;;11.51;55.83;99104.73;344565;111;1961936;-72
2021/04/22 00:41:14;;;;;;;15.51;8.86;;;;;;;11.49;55.84;99119.52;361741;108;1963987;-73
2021/04/22 00:42:20;;;;;;;14.53;8.83;;;;;;;11.46;56.02;99112.69;361851;111;1961978;-73
2021/04/22 00:43:27;;;;;;;13.99;9.38;;;;;;;11.41;56.44;99120.64;317548;111;2779994;-73
2021/04/22 00:44:33;;;;;;;13.69;8.75;;;;;;;11.41;56.14;99113.35;357408;111;1963933;-73
2021/04/22 00:45:42;;;;;;;15.09;8.91;;;;;;;11.40;56.40;99127.91;361548;111;1965993;-73
2021/04/22 00:46:47;;;;;;;13.76;8.73;;;;;;;11.39;56.38;99122.74;313384;108;2051918;-72
2021/04/22 00:47:52;;;;;;;14.18;8.91;;;;;;;11.38;56.25;99121.92;360394;111;1960918;-72
2021/04/22 00:48:58;;;;;;;14.97;9.51;;;;;;;11.38;56.50;99123.80;362165;111;1961945;-72
2021/04/22 00:50:09;;;;;;;14.17;9.06;;;;;;;11.38;56.47;99126.51;362150;109;1962002;-73
2021/04/22 00:51:14;;;;;;;13.56;9.26;;;;;;;11.37;56.36;99122.95;362388;111;1962084;-72
2021/04/22 00:52:21;;;;;;;12.98;8.62;;;;;;;11.37;56.40;99127.54;361919;109;1963023;-72
2021/04/22 00:53:27;;;;;;;14.57;9.32;;;;;;;11.35;56.51;99127.78;317788;111;2766937;-72
2021/04/22 00:54:33;;;;;;;13.92;8.10;;;;;;;11.36;56.36;99134.02;362314;111;1962020;-73
2021/04/22 00:55:40;;;;;;;13.82;9.06;;;;;;;11.33;56.50;99135.28;360927;111;1960896;-72
2021/04/22 00:56:47;;;;;;;13.15;8.48;;;;;;;11.32;56.54;99121.98;321456;111;2691969;-72
2021/04/22 00:57:53;;;;;;;14.80;9.07;;;;;;;11.33;56.64;99129.88;362242;111;1962050;-72
2021/04/22 00:58:59;;;;;;;14.26;8.68;;;;;;;10.94;57.39;99128.38;362397;109;1960883;-72
2021/04/22 01:00:07;;;;;;;14.13;9.40;;;;;;;10.88;57.75;99134.67;362664;109;1960920;-73
2021/04/22 01:01:12;;;;;;;14.07;8.93;;;;;;;10.78;58.16;99132.46;336243;111;1960849;-71
2021/04/22 01:02:17;;;;;;;17.68;9.58;;;;;;;10.75;58.24;99143.72;355780;111;1965282;-72
2021/04/22 01:03:23;;;;;;;15.00;8.74;;;;;;;10.82;58.04;99133.66;354927;111;1961957;-72
2021/04/22 01:04:29;;;;;;;12.32;8.73;;;;;;;10.76;58.14;99135.38;354976;110;1960666;-72
2021/04/22 01:05:38;;;;;;;12.32;8.73;;;;;;;10.74;58.36;99144.73;363426;110;1962050;-73
2021/04/22 01:06:44;;;;;;;13.06;8.98;;;;;;;10.72;58.46;99134.17;363242;110;1962003;-72
2021/04/22 01:07:50;;;;;;;13.64;8.44;;;;;;;10.77;58.39;99139.75;364212;108;1961988;-72
2021/04/22 01:08:56;;;;;;;14.04;9.87;;;;;;;10.80;58.18;99138.48;349647;113;1961954;-72
2021/04/22 01:10:01;;;;;;;13.55;8.42;;;;;;;10.76;58.34;99137.25;362539;111;1961914;-72
2021/04/22 01:11:07;;;;;;;15.27;9.29;;;;;;;10.71;58.38;99137.91;339137;109;2345921;-73
2021/04/22 01:12:12;;;;;;;15.59;9.04;;;;;;;10.75;58.33;99131.03;339675;111;1961947;-72
2021/04/22 01:13:18;;;;;;;12.98;8.84;;;;;;;10.72;58.40;99139.58;353566;111;1961912;-72
2021/04/22 01:14:23;;;;;;;13.59;8.73;;;;;;;10.70;58.67;99133.56;361474;111;1962000;-72
2021/04/22 01:15:30;;;;;;;13.44;8.89;;;;;;;10.70;58.50;99130.03;362425;111;1962008;-72
2021/04/22 01:16:36;;;;;;;14.33;8.83;;;;;;;10.68;58.54;99135.64;362126;111;1962003;-73
2021/04/22 01:17:43;;;;;;;13.71;9.21;;;;;;;10.66;58.61;99139.61;332846;108;2478820;-71
2021/04/22 01:18:48;;;;;;;15.62;9.87;;;;;;;10.66;58.64;99136.91;353459;112;1964015;-72
2021/04/22 01:20:12;;;;;;;15.25;9.64;;;;;;;10.64;58.73;99145.25;351048;112;1963952;-73
2021/04/22 01:21:24;;;;;;;14.66;8.58;;;;;;;10.68;58.68;99134.83;356580;111;1961976;-72
2021/04/22 01:22:29;;;;;;;13.50;9.46;;;;;;;10.71;58.69;99132.50;367547;109;1962005;-72
2021/04/22 01:23:35;;;;;;;13.81;9.48;;;;;;;10.89;58.22;99130.91;368166;109;1962906;-72
2021/04/22 01:24:41;;;;;;;13.71;9.38;;;;;;;10.94;58.13;99139.19;361193;109;1961966;-73
2021/04/22 01:25:53;;;;;;;13.58;8.96;;;;;;;10.98;57.94;99140.38;353688;111;2886050;-72
2021/04/22 01:26:58;;;;;;;12.97;9.21;;;;;;;10.79;58.21;99137.63;361889;111;1961955;-72
2021/04/22 01:28:07;;;;;;;14.27;9.62;;;;;;;10.67;58.80;99136.70;360057;110;1961926;-72
2021/04/22 01:29:15;;;;;;;15.02;9.07;;;;;;;10.66;58.90;99145.84;294885;113;2155893;-73
2021/04/22 01:30:29;;;;;;;14.94;9.42;;;;;;;10.65;58.93;99140.67;298174;114;2076008;-71
2021/04/22 01:31:34;;;;;;;14.47;8.76;;;;;;;10.66;58.95;99139.61;359407;110;1962037;-72
2021/04/22 01:32:39;;;;;;;14.83;9.24;;;;;;;10.64;59.00;99129.05;359646;110;1965000;-73
2021/04/22 01:33:45;;;;;;;13.06;9.23;;;;;;;10.69;58.92;99136.47;361118;110;1962269;-72
2021/04/22 01:34:51;;;;;;;13.00;8.82;;;;;;;10.70;58.92;99138.96;360015;111;1962950;-72
2021/04/22 01:35:58;;;;;;;13.48;8.82;;;;;;;10.71;58.86;99132.50;329171;111;2510945;-73
2021/04/22 01:37:04;;;;;;;14.08;9.39;;;;;;;10.74;58.80;99142.04;360854;111;1964933;-72
2021/04/22 01:38:11;;;;;;;14.40;9.25;;;;;;;10.75;58.75;99141.83;359903;111;1961986;-72
2021/04/22 01:39:17;;;;;;;14.40;8.72;;;;;;;10.79;58.67;99140.33;350730;111;2955147;-74
2021/04/22 01:40:25;;;;;;;14.54;9.71;;;;;;;10.78;58.63;99137.86;346005;113;1961994;-72
2021/04/22 01:41:31;;;;;;;14.54;10.04;;;;;;;10.75;58.66;99139.13;347135;114;1961910;-72
2021/04/22 01:42:38;;;;;;;13.42;9.32;;;;;;;10.72;58.80;99138.75;321867;110;2661979;-72
2021/04/22 01:43:43;;;;;;;16.21;10.24;;;;;;;10.71;58.73;99128.98;360764;110;1962850;-72
2021/04/22 01:44:49;;;;;;;15.09;9.93;;;;;;;10.69;58.82;99133.77;361168;110;1961980;-72
2021/04/22 01:45:55;;;;;;;12.86;8.73;;;;;;;10.67;58.88;99135.88;360916;110;1962958;-72
2021/04/22 01:47:00;;;;;;;13.06;9.08;;;;;;;10.64;58.83;99133.59;361343;110;1962054;-72
2021/04/22 01:48:07;;;;;;;14.66;9.42;;;;;;;10.61;59.06;99137.59;361491;110;1964006;-72
2021/04/22 01:49:12;;;;;;;13.81;9.38;;;;;;;10.60;59.00;99130.52;324229;110;1961975;-72
2021/04/22 01:50:23;;;;;;;15.74;8.97;;;;;;;10.77;58.61;99130.82;360741;109;1961019;-72
2021/04/22 01:51:29;;;;;;;14.54;9.31;;;;;;;10.58;59.01;99134.48;354370;112;1961977;-72
2021/04/22 01:52:34;;;;;;;13.85;10.02;;;;;;;10.54;59.21;99134.92;352708;113;1961990;-72
2021/04/22 01:53:40;;;;;;;12.81;9.63;;;;;;;10.52;59.17;99128.09;353596;113;1962962;-72
2021/04/22 01:54:46;;;;;;;13.74;9.38;;;;;;;10.50;59.27;99135.57;361146;109;1962025;-72
2021/04/22 01:55:52;;;;;;;18.80;10.83;;;;;;;10.49;59.33;99136.62;334446;110;2421963;-72
2021/04/22 01:56:58;;;;;;;15.07;10.02;;;;;;;10.48;59.49;99126.88;346396;110;1961871;-72
2021/04/22 01:58:05;;;;;;;15.81;10.39;;;;;;;10.48;59.37;99130.41;348584;110;1960842;-72
2021/04/22 01:59:10;;;;;;;14.06;9.47;;;;;;;10.43;59.63;99138.33;361015;110;1963982;-72
2021/04/22 02:00:21;;;;;;;13.66;9.83;;;;;;;10.43;59.51;99130.23;312860;110;2847955;-73
2021/04/22 02:01:27;;;;;;;13.57;9.52;;;;;;;10.41;59.51;99134.19;319837;110;2704055;-72
2021/04/22 02:02:33;;;;;;;15.07;10.68;;;;;;;10.40;59.54;99137.92;329622;110;1961945;-72
2021/04/22 02:03:39;;;;;;;14.33;9.61;;;;;;;10.33;59.74;99133.40;359415;109;1962961;-71
2021/04/22 02:04:46;;;;;;;14.46;9.33;;;;;;;10.31;59.86;99132.78;361335;110;1961945;-73
2021/04/22 02:05:52;;;;;;;13.82;9.88;;;;;;;10.29;59.82;99134.05;359838;111;1960665;-72
2021/04/22 02:06:58;;;;;;;16.48;10.22;;;;;;;10.27;59.79;99139.67;330100;111;2407981;-72
2021/04/22 02:08:05;;;;;;;17.22;10.23;;;;;;;10.28;59.87;99135.09;323663;111;1962954;-72
2021/04/22 02:09:10;;;;;;;14.32;10.35;;;;;;;10.25;60.06;99133.63;360403;110;1964377;-72
2021/04/22 02:10:15;;;;;;;14.59;10.29;;;;;;;10.25;59.92;99140.91;361488;110;1961956;-71
2021/04/22 02:11:22;;;;;;;17.22;10.46;;;;;;;10.23;59.99;99126.79;342807;115;1964991;-72
2021/04/22 02:12:28;;;;;;;15.02;9.79;;;;;;;10.21;59.98;99134.27;319246;114;2473942;-72
2021/04/22 02:13:43;;;;;;;16.14;9.66;;;;;;;10.18;60.04;99137.41;305367;115;1974952;-73
2021/04/22 02:14:48;;;;;;;15.87;10.38;;;;;;;10.17;60.06;99136.59;355228;111;1962014;-72
2021/04/22 02:15:54;;;;;;;14.92;10.39;;;;;;;10.14;60.27;99137.02;363035;110;1961994;-71
2021/04/22 02:17:00;;;;;;;14.22;10.03;;;;;;;10.09;60.25;99137.66;362672;110;1961886;-71
2021/04/22 02:18:05;;;;;;;15.76;10.40;;;;;;;10.08;60.37;99136.02;363120;109;1962874;-71
2021/04/22 02:19:13;;;;;;;16.12;10.29;;;;;;;10.05;60.52;99143.70;363175;110;1962060;-72
2021/04/22 02:20:20;;;;;;;14.57;10.32;;;;;;;10.05;60.46;99139.13;363123;109;1965012;-72
2021/04/22 02:21:26;;;;;;;15.99;11.00;;;;;;;10.09;60.39;99137.66;362856;108;1961000;-71
2021/04/22 02:22:33;;;;;;;15.48;10.33;;;;;;;10.06;60.49;99148.07;353571;109;2930950;-72
2021/04/22 02:23:38;;;;;;;15.68;11.09;;;;;;;10.05;60.48;99139.13;359851;110;1962003;-72
2021/04/22 02:24:44;;;;;;;16.76;10.74;;;;;;;10.08;60.42;99140.56;363496;109;1962028;-72
2021/04/22 02:25:49;;;;;;;15.32;10.54;;;;;;;10.12;60.44;99136.41;362033;109;1963009;-72
2021/04/22 02:26:54;;;;;;;16.81;11.88;;;;;;;10.10;60.33;99136.61;362117;110;1961999;-72
2021/04/22 02:28:00;;;;;;;16.71;11.27;;;;;;;10.08;60.40;99143.27;362298;110;1961994;-72
2021/04/22 02:29:05;;;;;;;16.56;11.69;;;;;;;10.04;60.46;99142.88;359958;111;1962007;-72
2021/04/22 02:30:15;;;;;;;19.09;12.12;;;;;;;10.03;60.52;99146.63;359409;111;1962022;-72
2021/04/22 02:31:22;;;;;;;17.32;12.08;;;;;;;10.02;60.56;99149.53;359741;111;1961781;-73
2021/04/22 02:32:28;;;;;;;17.25;11.07;;;;;;;10.00;60.62;99146.21;320264;111;2666950;-72
2021/04/22 02:33:33;;;;;;;18.78;11.78;;;;;;;9.96;60.72;99143.12;327730;111;1961990;-72
2021/04/22 02:34:39;;;;;;;16.48;10.41;;;;;;;10.02;60.61;99146.83;359615;110;1961810;-71
2021/04/22 02:35:47;;;;;;;19.02;11.28;;;;;;;10.00;60.62;99141.67;359734;111;1960886;-72
2021/04/22 02:36:53;;;;;;;17.59;12.13;;;;;;;9.98;60.69;99141.05;354049;111;1962997;-72
2021/04/22 02:38:01;;;;;;;17.02;12.29;;;;;;;9.97;60.63;99142.07;361925;110;1962047;-72
2021/04/22 02:39:07;;;;;;;16.89;11.56;;;;;;;9.98;60.58;99138.34;362864;109;1963978;-72
2021/04/22 02:40:16;;;;;;;15.95;10.97;;;;;;;9.95;60.62;99144.18;335898;111;1962014;-72
2021/04/22 02:41:21;;;;;;;17.31;11.22;;;;;;;9.95;60.63;99141.48;361919;109;1961943;-72
2021/04/22 02:42:28;;;;;;;15.82;10.73;;;;;;;9.95;60.58;99144.18;352564;110;2885971;-71
2021/04/22 02:43:33;;;;;;;16.41;11.43;;;;;;;9.95;60.62;99146.02;322212;112;1962964;-73
2021/04/22 02:44:39;;;;;;;15.55;11.62;;;;;;;9.92;60.76;99149.98;343058;112;1961991;-73
2021/04/22 02:45:47;;;;;;;17.93;11.38;;;;;;;9.93;60.75;99150.83;355735;113;1965084;-72
2021/04/22 02:46:53;;;;;;;16.55;10.85;;;;;;;9.87;60.88;99153.34;332766;113;1961957;-72
2021/04/22 02:47:59;;;;;;;17.11;12.61;;;;;;;9.83;61.09;99149.40;355081;113;1961961;-72
2021/04/22 02:49:05;;;;;;;16.37;11.34;;;;;;;9.83;61.14;99151.28;354858;112;1962110;-72
2021/04/22 02:50:15;;;;;;;16.83;11.21;;;;;;;9.78;61.14;99149.21;361623;110;1962002;-71
2021/04/22 02:51:20;;;;;;;16.93;11.88;;;;;;;9.77;61.42;99158.36;362033;110;1960795;-72
2021/04/22 02:52:26;;;;;;;18.24;11.02;;;;;;;9.77;61.30;99161.05;361981;110;1962979;-72
2021/04/22 02:53:32;;;;;;;17.12;10.96;;;;;;;9.75;61.33;99157.73;314085;110;2819822;-72
2021/04/22 02:54:38;;;;;;;17.58;12.26;;;;;;;9.74;61.34;99153.39;352547;110;1964049;-72
2021/04/22 02:55:45;;;;;;;18.52;11.83;;;;;;;9.72;61.37;99152.77;361109;110;1961992;-72
2021/04/22 02:56:52;;;;;;;16.80;11.25;;;;;;;9.72;61.44;99158.16;329663;110;2504986;-72
2021/04/22 02:57:58;;;;;;;17.48;10.76;;;;;;;9.70;61.52;99154.84;336166;110;1962013;-71
2021/04/22 02:59:04;;;;;;;16.17;11.34;;;;;;;9.69;61.52;99155.90;362191;109;1962905;-72
2021/04/22 03:00:14;;;;;;;17.69;12.43;;;;;;;9.71;61.63;99155.67;362246;110;1961949;-72
2021/04/22 03:01:19;;;;;;;17.02;11.40;;;;;;;9.73;61.44;99157.11;363379;110;1963001;-72
2021/04/22 03:02:24;;;;;;;15.66;10.22;;;;;;;9.78;61.38;99153.78;363435;109;1961985;-72
2021/04/22 03:03:30;;;;;;;18.35;12.01;;;;;;;9.74;61.42;99156.09;362831;110;1962009;-72
2021/04/22 03:04:36;;;;;;;16.65;10.57;;;;;;;9.74;61.46;99160.63;363197;109;1960500;-72
2021/04/22 03:05:42;;;;;;;17.19;10.94;;;;;;;9.72;61.54;99150.08;362451;110;1962049;-73
2021/04/22 03:06:48;;;;;;;16.74;10.87;;;;;;;9.74;61.52;99166.02;353081;109;1961972;-71
2021/04/22 03:07:54;;;;;;;16.34;10.82;;;;;;;9.72;61.59;99168.13;362810;109;1962018;-73
2021/04/22 03:08:59;;;;;;;15.15;10.97;;;;;;;9.80;61.51;99160.63;362603;109;1961992;-72
2021/04/22 03:10:08;;;;;;;16.45;10.91;;;;;;;9.71;61.63;99164.58;362390;109;1961991;-72
2021/04/22 03:11:14;;;;;;;16.05;10.51;;;;;;;9.73;61.65;99164.38;361260;110;1961969;-72
2021/04/22 03:12:19;;;;;;;14.39;10.81;;;;;;;9.71;61.63;99169.98;362883;110;1962001;-73
2021/04/22 03:13:25;;;;;;;16.33;11.09;;;;;;;9.72;61.62;99168.13;362169;110;1961912;-72
2021/04/22 03:14:30;;;;;;;17.46;10.40;;;;;;;9.71;61.67;99166.45;361902;109;1961920;-72
2021/04/22 03:15:37;;;;;;;18.20;12.00;;;;;;;9.73;61.61;99167.90;360988;110;1963933;-73
2021/04/22 03:16:44;;;;;;;19.90;12.27;;;;;;;9.74;61.60;99168.72;361457;110;1961956;-72
2021/04/22 03:18:01;;;;;;;16.54;11.17;;;;;;;9.73;61.62;99167.08;361439;111;1962031;-72
2021/04/22 03:19:06;;;;;;;16.16;10.12;;;;;;;9.76;61.49;99166.65;361247;109;1962007;-71
2021/04/22 03:20:14;;;;;;;17.91;11.07;;;;;;;9.77;61.49;99171.02;337345;111;2268005;-71
2021/04/22 03:21:19;;;;;;;18.80;11.57;;;;;;;9.78;61.44;99165.39;357168;111;1962005;-72
2021/04/22 03:22:24;;;;;;;17.69;10.56;;;;;;;9.79;61.55;99171.61;355923;111;1962044;-72
2021/04/22 03:23:29;;;;;;;15.81;11.14;;;;;;;9.78;61.55;99168.09;356054;111;1962042;-72
2021/04/22 03:24:35;;;;;;;15.51;11.06;;;;;;;9.82;61.41;99168.52;354244;111;1962962;-73
2021/04/22 03:25:41;;;;;;;14.44;10.02;;;;;;;9.80;61.46;99167.89;354246;111;1961055;-71
2021/04/22 03:26:47;;;;;;;16.94;11.57;;;;;;;9.82;61.37;99163.94;324631;113;2483929;-72
2021/04/22 03:27:53;;;;;;;16.39;11.06;;;;;;;9.84;61.41;99167.27;332383;116;1960850;-72
2021/04/22 03:28:59;;;;;;;17.54;11.81;;;;;;;9.84;61.40;99172.66;348917;114;1961999;-72
2021/04/22 03:30:07;;;;;;;14.57;10.96;;;;;;;9.86;61.36;99178.64;350159;113;1960781;-72
2021/04/22 03:31:14;;;;;;;17.31;10.20;;;;;;;9.87;61.37;99164.13;313638;111;1985997;-72
2021/04/22 03:32:19;;;;;;;15.84;11.22;;;;;;;9.91;61.20;99168.05;353489;113;1961013;-72
2021/04/22 03:33:24;;;;;;;16.19;10.92;;;;;;;9.91;61.25;99168.05;353747;111;1963977;-72
2021/04/22 03:34:29;;;;;;;18.84;11.03;;;;;;;9.93;61.17;99167.02;353947;113;1962067;-71
2021/04/22 03:35:35;;;;;;;17.27;11.29;;;;;;;9.94;61.16;99171.36;354615;111;1961976;-71
2021/04/22 03:36:41;;;;;;;18.31;10.72;;;;;;;9.96;61.03;99175.50;355206;111;1965037;-72
2021/04/22 03:37:57;;;;;;;14.87;10.63;;;;;;;10.07;60.77;99174.00;314964;113;2684991;-72
2021/04/22 03:39:04;;;;;;;16.40;11.19;;;;;;;10.09;60.70;99178.14;368184;108;1962928;-72
2021/04/22 03:40:13;;;;;;;15.14;10.25;;;;;;;10.08;60.69;99175.64;364313;110;1960583;-73
2021/04/22 03:41:18;;;;;;;14.88;9.68;;;;;;;10.11;60.60;99172.55;364468;109;1963042;-72
2021/04/22 03:42:23;;;;;;;17.08;10.37;;;;;;;10.18;60.52;99176.02;364578;111;1962032;-72
2021/04/22 03:43:28;;;;;;;14.42;10.81;;;;;;;10.25;60.24;99179.52;364918;109;1962028;-72
2021/04/22 03:44:34;;;;;;;14.79;10.78;;;;;;;10.29;60.13;99178.09;365844;108;1962005;-72
2021/04/22 03:45:39;;;;;;;14.57;9.97;;;;;;;10.29;60.13;99171.84;365523;110;1961980;-72
2021/04/22 03:46:46;;;;;;;15.91;10.84;;;;;;;10.29;60.13;99179.94;365584;109;1962024;-72
2021/04/22 03:47:52;;;;;;;17.07;11.03;;;;;;;10.33;59.98;99171.20;316070;110;2835959;-71
2021/04/22 03:48:59;;;;;;;16.49;11.18;;;;;;;10.41;59.85;99182.80;342672;110;1961968;-72
2021/04/22 03:50:06;;;;;;;16.39;10.72;;;;;;;10.41;59.86;99185.49;364877;109;1961988;-72
2021/04/22 03:51:12;;;;;;;15.53;10.96;;;;;;;10.31;59.89;99178.67;303565;110;2170389;-73
2021/04/22 03:52:19;;;;;;;15.16;10.51;;;;;;;10.21;60.25;99180.98;337885;110;1963019;-72
2021/04/22 03:53:26;;;;;;;17.76;10.93;;;;;;;10.30;60.27;99187.01;364867;111;1961991;-72
2021/04/22 03:54:32;;;;;;;15.27;11.03;;;;;;;10.45;59.81;99192.09;319120;109;2774988;-73
2021/04/22 03:55:38;;;;;;;16.98;10.56;;;;;;;10.32;60.09;99183.05;354559;111;1964357;-73
2021/04/22 03:56:44;;;;;;;16.18;10.89;;;;;;;10.31;60.08;99189.47;363385;111;1962962;-73
2021/04/22 03:57:49;;;;;;;13.90;9.81;;;;;;;10.37;59.99;99193.18;365040;109;1962000;-73
2021/04/22 03:58:54;;;;;;;12.45;9.55;;;;;;;10.42;59.87;99189.84;365820;110;1961898;-72
2021/04/22 04:00:00;;;;;;;14.62;9.79;;;;;;;10.59;59.36;99195.58;363134;109;1962023;-73
2021/04/22 04:01:06;;;;;;;14.94;10.01;;;;;;;10.72;59.05;99190.91;363668;111;1962033;-72
2021/04/22 04:02:12;;;;;;;14.56;9.48;;;;;;;10.76;58.85;99196.69;322958;111;2691966;-72
2021/04/22 04:03:17;;;;;;;24.05;13.03;;;;;;;10.78;58.74;99200.83;333888;111;1965024;-72
2021/04/22 04:04:42;;;;;;;15.61;10.52;;;;;;;10.84;58.65;99201.00;345271;111;1962014;-72
2021/04/22 04:05:47;;;;;;;14.07;9.39;;;;;;;10.88;58.49;99202.23;326495;115;1962995;-72
2021/04/22 04:06:53;;;;;;;16.55;10.38;;;;;;;10.91;58.38;99205.31;336937;117;1961965;-73
2021/04/22 04:07:59;;;;;;;16.70;10.04;;;;;;;10.94;58.28;99199.46;337498;117;1962071;-72
2021/04/22 04:09:04;;;;;;;14.17;11.06;;;;;;;10.99;58.18;99204.22;341430;116;1962072;-72
2021/04/22 04:10:12;;;;;;;15.44;10.55;;;;;;;11.04;57.98;99201.68;340299;117;1961943;-72
2021/04/22 04:11:17;;;;;;;16.12;11.29;;;;;;;11.07;57.93;99209.34;301850;118;1970807;-72
2021/04/22 04:12:24;;;;;;;15.34;10.29;;;;;;;11.07;57.91;99214.75;313977;118;1961967;-72
2021/04/22 04:13:29;;;;;;;18.07;12.07;;;;;;;11.08;57.85;99204.77;342375;118;1961970;-72
2021/04/22 04:14:35;;;;;;;19.87;11.84;;;;;;;11.09;57.78;99212.66;342262;116;1963023;-72
2021/04/22 04:15:45;;;;;;;15.97;10.59;;;;;;;11.13;57.68;99218.45;346564;116;1961946;-72
2021/04/22 04:16:49;;;;;;;17.92;11.88;;;;;;;11.30;57.30;99216.86;346735;114;1962004;-72
2021/04/22 04:17:55;;;;;;;17.87;11.53;;;;;;;11.18;57.47;99208.62;346444;115;1963065;-72
2021/04/22 04:19:01;;;;;;;18.37;11.55;;;;;;;11.19;57.54;99213.00;345877;114;1961952;-72
2021/04/22 04:20:10;;;;;;;19.96;12.18;;;;;;;11.16;57.52;99208.01;303832;117;1962985;-72
2021/04/22 04:21:16;;;;;;;18.10;11.45;;;;;;;11.20;57.41;99219.23;340863;116;1962995;-72
2021/04/22 04:22:23;;;;;;;18.98;11.79;;;;;;;11.17;57.43;99217.79;310094;115;2897979;-72
2021/04/22 04:23:28;;;;;;;17.01;11.42;;;;;;;11.15;57.19;99225.28;341074;118;1962985;-73
2021/04/22 04:24:34;;;;;;;16.82;10.94;;;;;;;11.20;57.26;99230.04;342719;116;1963930;-73
2021/04/22 04:25:39;;;;;;;14.58;10.70;;;;;;;11.24;57.14;99220.42;342054;118;1962013;-73
2021/04/22 04:26:45;;;;;;;14.34;9.33;;;;;;;11.24;57.16;99220.42;342019;118;1961968;-73
2021/04/22 04:27:51;;;;;;;15.06;10.61;;;;;;;11.30;56.89;99216.00;341929;116;1961913;-73
2021/04/22 04:28:57;;;;;;;17.01;10.02;;;;;;;11.32;56.80;99222.02;303986;118;2632942;-73
2021/04/22 04:30:05;;;;;;;17.82;11.37;;;;;;;10.90;56.64;99155.03;313103;116;1962980;-73
2021/04/22 04:31:12;;;;;;;18.28;10.75;;;;;;;11.35;56.66;99226.98;289587;115;2145997;-72
2021/04/22 04:32:18;;;;;;;15.01;10.06;;;;;;;11.37;56.62;99231.13;333628;115;1961894;-72
2021/04/22 04:33:23;;;;;;;15.56;10.18;;;;;;;11.40;56.51;99227.97;343797;115;1964024;-72
2021/04/22 04:34:29;;;;;;;15.38;10.14;;;;;;;11.40;56.54;99241.48;344024;115;1961966;-72
2021/04/22 04:35:34;;;;;;;15.83;10.75;;;;;;;11.39;56.64;99236.32;341334;116;1962010;-73
2021/04/22 04:36:45;;;;;;;14.50;10.66;;;;;;;11.40;56.57;99230.67;301681;116;2776015;-72
2021/04/22 04:37:49;;;;;;;16.33;9.85;;;;;;;11.42;56.45;99233.98;346172;115;1962067;-72
2021/04/22 04:38:55;;;;;;;17.46;10.94;;;;;;;11.43;56.49;99245.63;344468;116;1961943;-72
2021/04/22 04:40:00;;;;;;;15.59;11.18;;;;;;;11.46;56.40;99239.80;341312;116;1962035;-72
2021/04/22 04:41:06;;;;;;;16.47;10.62;;;;;;;11.50;56.27;99242.88;340212;117;1962044;-72
2021/04/22 04:42:12;;;;;;;16.44;10.98;;;;;;;11.50;56.13;99237.47;295322;116;2893989;-72
2021/04/22 04:43:18;;;;;;;14.73;10.15;;;;;;;11.53;56.11;99234.31;321562;117;1961028;-72
2021/04/22 04:44:23;;;;;;;15.77;10.55;;;;;;;11.55;56.10;99234.92;341087;117;1961725;-73
2021/04/22 04:45:29;;;;;;;16.39;10.25;;;;;;;11.60;55.98;99241.32;340261;118;1965266;-72
2021/04/22 04:46:39;;;;;;;15.82;10.34;;;;;;;11.58;56.00;99237.19;308978;117;2568980;-72
2021/04/22 04:47:45;;;;;;;15.99;10.88;;;;;;;11.59;55.94;99236.97;344098;115;1962073;-73
2021/04/22 04:48:50;;;;;;;15.91;11.02;;;;;;;11.65;55.87;99237.95;343281;115;1963035;-73
2021/04/22 04:49:56;;;;;;;16.94;11.42;;;;;;;11.71;55.81;99238.94;344054;115;1962020;-74
2021/04/22 04:51:03;;;;;;;16.08;10.10;;;;;;;11.73;55.71;99237.66;346168;115;1964962;-73
2021/04/22 04:52:08;;;;;;;14.91;10.39;;;;;;;11.76;55.56;99231.80;315934;115;1963036;-73
2021/04/22 04:53:13;;;;;;;13.94;9.73;;;;;;;11.77;55.58;99232.61;321868;116;1962038;-73
2021/04/22 04:54:19;;;;;;;15.52;10.95;;;;;;;11.93;55.14;99233.94;332704;115;1961962;-74
2021/04/22 04:55:24;;;;;;;15.27;10.66;;;;;;;11.92;54.98;99230.41;346074;116;1962023;-73
2021/04/22 04:56:30;;;;;;;14.97;10.05;;;;;;;11.94;55.04;99235.61;346407;114;1961916;-73
2021/04/22 04:57:37;;;;;;;14.69;9.74;;;;;;;11.99;55.00;99230.34;346603;115;1962785;-73
2021/04/22 04:58:43;;;;;;;14.37;9.47;;;;;;;12.01;54.92;99233.63;306318;114;2725021;-73
2021/04/22 04:59:49;;;;;;;15.84;10.11;;;;;;;12.08;54.71;99237.09;346589;115;1962004;-73
2021/04/22 05:00:55;;;;;;;15.03;10.46;;;;;;;11.73;54.50;99166.48;346583;115;1961759;-73